createdAt,value
2018-12-25T00:00:50.020Z,25.60
2018-12-25T00:03:38.727Z,20.80
2018-12-25T00:09:34.921Z,24.03
2018-12-25T00:12:22.917Z,25.90
2018-12-25T00:15:11.003Z,31.07
2018-12-25T00:17:58.945Z,31.60
2018-12-25T00:20:30.597Z,28.40
2018-12-25T00:23:23.807Z,24.13
2018-12-25T00:26:11.995Z,27.03
2018-12-25T00:29:00.027Z,23.30
2018-12-25T00:31:48.079Z,19.07
2018-12-25T00:34:36.109Z,24.20
2018-12-25T00:37:24.135Z,21.07
2018-12-25T00:40:12.367Z,18.23
2018-12-25T00:43:00.413Z,25.23
2018-12-25T00:45:48.488Z,19.17
2018-12-25T00:52:05.311Z,19.50
2018-12-25T00:54:31.224Z,20.77
2018-12-25T00:59:48.222Z,27.60
2018-12-25T01:05:05.543Z,25.33
2018-12-25T01:10:26.126Z,18.27
2018-12-25T01:12:55.428Z,16.73
2018-12-25T01:15:43.457Z,14.33
2018-12-25T01:18:31.485Z,17.63
2018-12-25T01:21:01.288Z,17.53
2018-12-25T01:26:38.476Z,14.20
2018-12-25T01:29:07.813Z,19.43
2018-12-25T01:31:55.855Z,21.40
2018-12-25T01:34:43.843Z,20.87
2018-12-25T01:37:31.884Z,18.10
2018-12-25T01:40:19.876Z,37.87
2018-12-25T01:43:26.823Z,30.60
2018-12-25T01:46:14.883Z,20.27
2018-12-25T01:49:14.732Z,20.17
2018-12-25T01:51:52.596Z,15.53
2018-12-25T01:54:22.315Z,23.20
2018-12-25T01:57:10.316Z,23.33
2018-12-25T01:59:59.218Z,26.10
2018-12-25T02:07:59.379Z,23.07
2018-12-25T02:10:28.416Z,18.23
2018-12-25T02:13:16.455Z,44.80
2018-12-25T02:16:04.439Z,19.10
2018-12-25T02:18:52.468Z,27.80
2018-12-25T02:21:40.514Z,17.77
2018-12-25T02:24:47.427Z,18.17
2018-12-25T02:27:35.429Z,19.00
2018-12-25T02:30:23.472Z,21.23
2018-12-25T02:33:11.470Z,16.37
2018-12-25T02:35:40.521Z,19.03
2018-12-25T02:39:01.201Z,12.93
2018-12-25T02:41:58.081Z,17.77
2018-12-25T02:44:46.089Z,25.40
2018-12-25T02:47:47.972Z,19.43
2018-12-25T02:50:04.862Z,37.60
2018-12-25T02:52:52.880Z,17.33
2018-12-25T02:59:03.644Z,14.23
2018-12-25T03:02:10.552Z,18.03
2018-12-25T03:05:07.547Z,11.97
2018-12-25T03:10:16.052Z,12.57
2018-12-25T03:12:45.040Z,15.80
2018-12-25T03:15:14.054Z,10.80
2018-12-25T03:17:43.381Z,10.67
2018-12-25T03:20:13.556Z,10.53
2018-12-25T03:22:42.552Z,12.83
2018-12-25T03:25:11.874Z,13.13
2018-12-25T03:27:45.004Z,13.17
2018-12-25T03:30:14.885Z,11.03
2018-12-25T03:32:44.890Z,12.70
2018-12-25T03:35:17.699Z,10.93
2018-12-25T03:37:47.416Z,11.83
2018-12-25T03:40:18.603Z,9.70
2018-12-25T03:42:48.330Z,14.30
2018-12-25T03:45:21.332Z,11.63
2018-12-25T03:47:51.001Z,11.57
2018-12-25T03:50:23.055Z,10.97
2018-12-25T03:52:52.080Z,11.07
2018-12-25T03:55:25.902Z,11.70
2018-12-25T03:57:55.906Z,13.90
2018-12-25T04:00:29.370Z,10.70
2018-12-25T04:02:59.079Z,11.00
2018-12-25T04:05:31.821Z,9.83
2018-12-25T04:08:01.492Z,12.00
2018-12-25T04:10:34.663Z,10.57
2018-12-25T04:13:04.635Z,13.43
2018-12-25T04:15:37.186Z,12.73
2018-12-25T04:18:06.194Z,9.70
2018-12-25T04:20:39.359Z,11.53
2018-12-25T04:23:09.162Z,9.37
2018-12-25T04:25:42.441Z,14.80
2018-12-25T04:28:12.199Z,16.20
2018-12-25T04:30:44.678Z,11.77
2018-12-25T04:33:14.683Z,10.10
2018-12-25T04:35:48.659Z,11.60
2018-12-25T04:38:17.683Z,11.30
2018-12-25T04:40:51.336Z,13.40
2018-12-25T04:43:20.660Z,14.90
2018-12-25T04:45:53.268Z,11.83
2018-12-25T04:48:22.946Z,12.00
2018-12-25T04:51:04.371Z,12.87
2018-12-25T04:53:34.038Z,12.57
2018-12-25T04:56:03.717Z,12.07
2018-12-25T04:58:33.019Z,11.27
2018-12-25T05:01:03.283Z,11.57
2018-12-25T05:03:32.949Z,12.77
2018-12-25T05:06:07.358Z,14.07
2018-12-25T05:08:36.407Z,11.10
2018-12-25T05:11:10.179Z,11.77
2018-12-25T05:13:39.202Z,10.60
2018-12-25T05:16:13.912Z,9.70
2018-12-25T05:18:43.619Z,10.03
2018-12-25T05:21:15.808Z,9.80
2018-12-25T05:23:45.502Z,12.73
2018-12-25T05:26:18.212Z,14.67
2018-12-25T05:28:48.371Z,10.40
2018-12-25T05:31:20.304Z,11.83
2018-12-25T05:33:49.997Z,10.83
2018-12-25T05:36:23.984Z,11.47
2018-12-25T05:38:53.695Z,11.33
2018-12-25T05:41:26.935Z,10.03
2018-12-25T05:43:56.662Z,11.50
2018-12-25T05:46:29.350Z,13.67
2018-12-25T05:48:58.643Z,11.43
2018-12-25T05:51:32.212Z,11.77
2018-12-25T05:54:01.905Z,8.97
2018-12-25T05:56:34.428Z,10.97
2018-12-25T05:59:04.121Z,9.27
2018-12-25T06:01:36.883Z,7.60
2018-12-25T06:04:06.554Z,13.00
2018-12-25T06:06:39.480Z,10.20
2018-12-25T06:09:09.444Z,12.30
2018-12-25T06:11:41.964Z,9.37
2018-12-25T06:14:11.075Z,13.73
2018-12-25T06:16:45.607Z,10.07
2018-12-25T06:19:17.129Z,9.40
2018-12-25T06:21:46.871Z,7.67
2018-12-25T06:24:16.822Z,8.00
2018-12-25T06:26:49.591Z,9.43
2018-12-25T06:29:19.265Z,10.47
2018-12-25T06:31:54.242Z,11.87
2018-12-25T06:34:23.900Z,9.73
2018-12-25T06:36:55.818Z,12.43
2018-12-25T06:39:24.851Z,14.17
2018-12-25T06:42:01.844Z,11.00
2018-12-25T06:44:31.829Z,9.87
2018-12-25T06:47:02.854Z,9.70
2018-12-25T06:49:32.568Z,9.40
2018-12-25T06:52:06.991Z,9.60
2018-12-25T06:54:36.665Z,10.57
2018-12-25T06:57:11.648Z,10.17
2018-12-25T06:59:41.224Z,8.90
2018-12-25T07:02:15.372Z,11.90
2018-12-25T07:04:45.075Z,10.70
2018-12-25T07:07:15.619Z,16.70
2018-12-25T07:09:45.367Z,10.50
2018-12-25T07:12:21.579Z,13.13
2018-12-25T07:14:51.624Z,9.47
2018-12-25T07:17:23.100Z,10.50
2018-12-25T07:19:52.941Z,10.27
2018-12-25T07:22:25.087Z,17.43
2018-12-25T07:24:54.767Z,12.37
2018-12-25T07:27:27.940Z,10.63
2018-12-25T07:29:57.253Z,10.17
2018-12-25T07:32:29.087Z,14.27
2018-12-25T07:34:58.089Z,13.00
2018-12-25T07:37:32.929Z,15.17
2018-12-25T07:40:02.600Z,13.47
2018-12-25T07:42:33.994Z,15.50
2018-12-25T07:45:03.471Z,15.60
2018-12-25T07:47:38.168Z,15.30
2018-12-25T07:50:08.193Z,15.07
2018-12-25T07:52:40.487Z,13.67
2018-12-25T07:55:10.210Z,15.80
2018-12-25T07:57:43.782Z,12.20
2018-12-25T08:00:14.092Z,12.13
2018-12-25T08:02:46.277Z,14.70
2018-12-25T08:05:15.325Z,15.77
2018-12-25T08:07:49.979Z,16.33
2018-12-25T08:10:19.663Z,17.77
2018-12-25T08:12:52.093Z,16.90
2018-12-25T08:15:21.835Z,20.83
2018-12-25T08:17:55.711Z,16.77
2018-12-25T08:20:25.325Z,14.67
2018-12-25T08:23:02.751Z,17.13
2018-12-25T08:25:31.217Z,18.10
2018-12-25T08:28:00.227Z,17.97
2018-12-25T08:30:30.215Z,17.90
2018-12-25T08:33:03.175Z,15.87
2018-12-25T08:35:34.901Z,21.03
2018-12-25T08:38:06.885Z,18.00
2018-12-25T08:40:35.886Z,16.90
2018-12-25T08:43:11.175Z,20.07
2018-12-25T08:45:40.615Z,19.33
2018-12-25T08:48:13.679Z,18.63
2018-12-25T08:50:43.387Z,23.60
2018-12-25T08:53:18.734Z,22.27
2018-12-25T08:55:48.427Z,20.97
2018-12-25T08:58:18.797Z,18.63
2018-12-25T09:00:47.829Z,18.03
2018-12-25T09:03:22.065Z,21.03
2018-12-25T09:05:52.188Z,20.30
2018-12-25T09:08:25.498Z,15.33
2018-12-25T09:10:55.207Z,21.17
2018-12-25T09:13:28.867Z,20.30
2018-12-25T09:15:58.604Z,20.07
2018-12-25T09:18:30.795Z,23.13
2018-12-25T09:21:00.152Z,18.43
2018-12-25T09:23:33.165Z,22.03
2018-12-25T09:26:02.856Z,19.47
2018-12-25T09:28:35.760Z,18.67
2018-12-25T09:31:05.513Z,23.63
2018-12-25T09:33:37.847Z,21.20
2018-12-25T09:36:07.520Z,21.30
2018-12-25T09:38:43.295Z,19.13
2018-12-25T09:41:13.342Z,15.80
2018-12-25T09:43:44.019Z,18.63
2018-12-25T09:46:13.225Z,19.07
2018-12-25T09:48:47.925Z,16.27
2018-12-25T09:51:16.983Z,16.37
2018-12-25T09:53:50.660Z,14.17
2018-12-25T09:56:20.400Z,15.47
2018-12-25T09:58:52.939Z,16.67
2018-12-25T10:01:22.887Z,17.43
2018-12-25T10:03:56.914Z,17.50
2018-12-25T10:06:26.624Z,19.37
2018-12-25T10:09:00.124Z,14.17
2018-12-25T10:14:06.619Z,16.17
2018-12-25T10:16:49.929Z,19.97
2018-12-25T10:19:27.836Z,17.57
2018-12-25T10:24:45.277Z,18.17
2018-12-25T10:27:17.244Z,17.17
2018-12-25T10:29:46.283Z,17.07
2018-12-25T10:32:34.366Z,17.97
2018-12-25T10:35:22.377Z,18.63
2018-12-25T10:38:29.324Z,18.07
2018-12-25T10:41:17.432Z,18.47
2018-12-25T10:44:05.576Z,15.87
2018-12-25T10:46:53.579Z,16.63
2018-12-25T10:49:22.925Z,22.13
2018-12-25T10:52:11.781Z,18.33
2018-12-25T10:55:00.619Z,16.57
2018-12-25T10:57:29.660Z,19.77
2018-12-25T11:00:17.727Z,22.40
2018-12-25T11:02:47.428Z,19.40
2018-12-25T11:05:35.452Z,18.20
2018-12-25T11:11:32.188Z,18.00
2018-12-25T11:14:20.207Z,18.47
2018-12-25T11:17:08.257Z,15.70
2018-12-25T11:20:26.306Z,20.47
2018-12-25T11:22:45.970Z,19.33
2018-12-25T11:25:17.232Z,17.27
2018-12-25T11:27:55.586Z,16.57
2018-12-25T11:30:41.361Z,15.40
2018-12-25T11:33:11.536Z,21.20
2018-12-25T11:35:59.556Z,18.23
2018-12-25T11:38:47.607Z,14.43
2018-12-25T11:41:17.309Z,16.93
2018-12-25T11:44:05.362Z,16.13
2018-12-25T11:46:53.379Z,15.50
2018-12-25T11:49:41.411Z,13.13
2018-12-25T11:52:11.096Z,14.60
2018-12-25T11:57:23.864Z,17.00
2018-12-25T11:59:42.851Z,12.60
2018-12-25T12:02:31.702Z,16.03
2018-12-25T12:05:20.404Z,12.03
2018-12-25T12:08:08.445Z,12.97
2018-12-25T12:10:38.296Z,13.63
2018-12-25T12:13:09.967Z,17.17
2018-12-25T12:15:39.287Z,11.33
2018-12-25T12:18:12.856Z,12.53
2018-12-25T12:20:41.904Z,18.30
2018-12-25T12:23:17.416Z,13.23
2018-12-25T12:25:47.130Z,13.13
2018-12-25T12:28:18.713Z,12.80
2018-12-25T12:30:48.449Z,12.47
2018-12-25T12:33:19.323Z,17.37
2018-12-25T12:35:48.404Z,12.73
2018-12-25T12:38:22.784Z,12.77
2018-12-25T12:40:52.098Z,12.33
2018-12-25T12:43:24.759Z,16.97
2018-12-25T12:45:54.492Z,13.90
2018-12-25T12:48:27.037Z,15.80
2018-12-25T12:50:56.719Z,14.47
2018-12-25T12:53:30.895Z,15.10
2018-12-25T12:56:00.882Z,18.43
2018-12-25T12:58:34.378Z,13.20
2018-12-25T13:01:04.144Z,14.37
2018-12-25T13:03:37.079Z,15.97
2018-12-25T13:06:08.134Z,14.17
2018-12-25T13:08:40.625Z,16.33
2018-12-25T13:11:10.306Z,16.60
2018-12-25T13:13:42.411Z,16.53
2018-12-25T13:16:11.443Z,15.47
2018-12-25T13:18:45.255Z,15.00
2018-12-25T13:21:14.663Z,14.87
2018-12-25T13:23:48.033Z,18.83
2018-12-25T13:26:18.272Z,14.80
2018-12-25T13:28:49.235Z,17.43
2018-12-25T13:31:18.252Z,18.70
2018-12-25T13:34:00.470Z,17.63
2018-12-25T13:36:30.473Z,17.60
2018-12-25T13:39:00.182Z,16.13
2018-12-25T13:41:29.610Z,15.33
2018-12-25T13:44:00.708Z,17.00
2018-12-25T13:46:29.782Z,16.23
2018-12-25T13:49:05.543Z,16.83
2018-12-25T13:51:34.549Z,17.07
2018-12-25T13:54:05.044Z,17.43
2018-12-25T13:56:34.534Z,17.40
2018-12-25T13:59:14.692Z,16.83
2018-12-25T14:01:44.694Z,15.40
2018-12-25T14:04:14.607Z,16.77
2018-12-25T14:06:43.605Z,24.43
2018-12-25T14:09:15.611Z,22.60
2018-12-25T14:11:44.617Z,21.40
2018-12-25T14:14:19.521Z,25.83
2018-12-25T14:16:49.211Z,21.07
2018-12-25T14:19:20.327Z,21.17
2018-12-25T14:21:49.399Z,23.17
2018-12-25T14:24:24.410Z,23.03
2018-12-25T14:26:54.425Z,20.77
2018-12-25T14:29:27.169Z,23.57
2018-12-25T14:31:56.857Z,28.67
2018-12-25T14:34:28.886Z,29.03
2018-12-25T14:36:58.622Z,22.27
2018-12-25T14:39:31.264Z,25.83
2018-12-25T14:42:00.727Z,30.03
2018-12-25T14:44:35.760Z,23.57
2018-12-25T14:47:05.475Z,27.10
2018-12-25T14:49:39.045Z,27.20
2018-12-25T14:52:09.016Z,27.00
2018-12-25T14:54:41.479Z,23.43
2018-12-25T14:57:11.172Z,22.57
2018-12-25T14:59:46.626Z,21.30
2018-12-25T15:02:16.744Z,24.80
2018-12-25T15:04:48.119Z,27.93
2018-12-25T15:07:17.436Z,31.27
2018-12-25T15:09:51.200Z,26.53
2018-12-25T15:12:20.937Z,30.53
2018-12-25T15:14:54.367Z,33.37
2018-12-25T15:17:24.144Z,21.97
2018-12-25T15:19:56.695Z,21.33
2018-12-25T15:22:25.702Z,21.20
2018-12-25T15:24:59.276Z,23.80
2018-12-25T15:27:28.960Z,28.57
2018-12-25T15:30:03.020Z,23.13
2018-12-25T15:32:32.062Z,23.00
2018-12-25T15:35:10.032Z,21.47
2018-12-25T15:37:39.763Z,19.87
2018-12-25T15:40:10.403Z,27.20
2018-12-25T15:42:40.367Z,25.77
2018-12-25T15:45:16.836Z,24.43
2018-12-25T15:47:46.190Z,29.87
2018-12-25T15:50:34.239Z,30.70
2018-12-25T15:53:22.236Z,28.27
2018-12-25T15:55:51.560Z,83.00
2018-12-25T15:58:22.881Z,38.60
2018-12-25T16:01:10.968Z,34.00
2018-12-25T16:03:58.957Z,30.23
2018-12-25T16:06:47.004Z,22.50
2018-12-25T16:09:35.092Z,23.17
2018-12-25T16:12:42.036Z,26.80
2018-12-25T16:15:11.057Z,23.43
2018-12-25T16:17:40.346Z,23.50
2018-12-25T16:20:16.704Z,29.07
2018-12-25T16:22:46.412Z,30.43
2018-12-25T16:25:36.231Z,25.27
2018-12-25T16:28:24.222Z,26.00
2018-12-25T16:31:12.308Z,23.63
2018-12-25T16:34:00.282Z,24.67
2018-12-25T16:36:48.325Z,24.57
2018-12-25T16:39:39.366Z,23.83
2018-12-25T16:42:28.856Z,22.30
2018-12-25T16:45:16.860Z,20.27
2018-12-25T16:48:04.928Z,23.40
2018-12-25T16:50:52.980Z,23.13
2018-12-25T16:53:53.513Z,23.23
2018-12-25T16:56:18.465Z,20.07
2018-12-25T16:59:06.494Z,18.17
2018-12-25T17:01:35.771Z,23.97
2018-12-25T17:04:23.802Z,25.77
2018-12-25T17:07:11.925Z,23.50
2018-12-25T17:09:59.956Z,21.57
2018-12-25T17:12:47.998Z,22.57
2018-12-25T17:15:36.041Z,20.67
2018-12-25T17:18:24.072Z,22.23
2018-12-25T17:21:12.114Z,18.77
2018-12-25T17:24:05.284Z,18.87
2018-12-25T17:26:53.318Z,25.63
2018-12-25T17:29:22.590Z,23.00
2018-12-25T17:32:29.552Z,28.90
2018-12-25T17:35:17.553Z,33.33
2018-12-25T17:38:05.590Z,29.53
2018-12-25T17:40:53.587Z,24.93
2018-12-25T17:43:23.407Z,27.30
2018-12-25T17:49:20.018Z,27.67
2018-12-25T17:52:08.013Z,26.53
2018-12-25T17:54:56.039Z,25.70
2018-12-25T17:57:44.152Z,23.07
2018-12-25T18:00:32.183Z,22.03
2018-12-25T18:06:29.000Z,22.90
2018-12-25T18:09:17.053Z,28.67
2018-12-25T18:11:46.239Z,25.30
2018-12-25T18:14:34.235Z,25.80
2018-12-25T18:17:22.296Z,30.47
2018-12-25T18:20:10.293Z,31.53
2018-12-25T18:22:39.348Z,31.30
2018-12-25T18:25:08.636Z,32.87
2018-12-25T18:27:58.364Z,29.83
2018-12-25T18:30:47.059Z,30.97
2018-12-25T18:33:35.096Z,32.40
2018-12-25T18:36:23.117Z,33.40
2018-12-25T18:39:32.106Z,27.83
2018-12-25T18:42:23.321Z,29.43
2018-12-25T18:44:59.904Z,30.80
2018-12-25T18:50:16.763Z,32.13
2018-12-25T18:55:34.162Z,32.23
2018-12-25T18:58:03.235Z,29.97
2018-12-25T19:00:32.513Z,30.73
2018-12-25T19:03:01.609Z,36.23
2018-12-25T19:05:49.608Z,34.97
2018-12-25T19:08:37.645Z,39.87
2018-12-25T19:11:07.686Z,34.90
2018-12-25T19:13:55.719Z,34.73
2018-12-25T19:16:43.723Z,45.63
2018-12-25T19:19:31.769Z,36.00
2018-12-25T19:22:31.491Z,36.87
2018-12-25T19:25:23.482Z,41.97
2018-12-25T19:27:40.417Z,32.63
2018-12-25T19:30:28.448Z,33.60
2018-12-25T19:33:35.397Z,31.33
2018-12-25T19:36:23.466Z,58.70
2018-12-25T19:39:11.472Z,48.50
2018-12-25T19:41:59.642Z,105.60
2018-12-25T19:44:32.856Z,251.43
2018-12-25T19:50:20.891Z,80.13
2018-12-25T19:53:08.924Z,172.80
2018-12-25T20:03:54.896Z,44.53
2018-12-25T20:12:05.412Z,75.50
2018-12-25T20:14:53.509Z,68.60
2018-12-25T20:17:47.190Z,68.00
2018-12-25T20:20:35.274Z,47.40
2018-12-25T20:23:23.277Z,45.03
2018-12-25T20:26:11.317Z,41.13
2018-12-25T20:29:19.028Z,44.87
2018-12-25T20:32:07.067Z,38.13
2018-12-25T20:35:14.054Z,59.40
2018-12-25T20:38:02.099Z,43.63
2018-12-25T20:40:50.092Z,42.53
2018-12-25T20:43:38.125Z,39.10
2018-12-25T20:46:26.196Z,43.30
2018-12-25T20:49:41.261Z,45.87
2018-12-25T20:52:29.263Z,43.00
2018-12-25T20:55:39.061Z,46.10
2018-12-25T20:58:27.075Z,35.13
2018-12-25T21:04:32.692Z,39.40
2018-12-25T21:09:55.376Z,33.23
2018-12-25T21:13:03.192Z,35.07
2018-12-25T21:15:51.228Z,34.50
2018-12-25T21:19:23.415Z,40.70
2018-12-25T21:22:11.420Z,32.60
2018-12-25T21:25:18.336Z,36.57
2018-12-25T21:28:06.481Z,33.63
2018-12-25T21:33:44.812Z,33.83
2018-12-25T21:36:32.823Z,33.17
2018-12-25T21:39:20.870Z,42.60
2018-12-25T21:42:08.864Z,35.47
2018-12-25T21:44:39.110Z,35.93
2018-12-25T21:47:38.814Z,39.70
2018-12-25T21:50:16.783Z,43.70
2018-12-25T21:53:05.669Z,34.60
2018-12-25T21:55:53.724Z,36.87
2018-12-25T21:59:00.646Z,39.03
2018-12-25T22:01:48.678Z,44.80
2018-12-25T22:04:36.662Z,51.00
2018-12-25T22:21:57.961Z,31.63
2018-12-25T22:24:45.959Z,35.83
2018-12-25T22:27:34.008Z,36.57
2018-12-25T22:30:21.999Z,42.33
2018-12-25T22:33:10.093Z,35.83
2018-12-25T22:35:58.096Z,35.17
2018-12-25T22:38:46.131Z,36.43
2018-12-25T22:41:15.819Z,41.07
2018-12-25T22:44:03.927Z,42.20
2018-12-25T22:50:00.516Z,39.27
2018-12-25T22:52:48.523Z,37.70
2018-12-25T22:55:36.564Z,37.33
2018-12-25T22:58:24.596Z,33.77
2018-12-25T23:01:12.624Z,32.20
2018-12-25T23:04:00.643Z,36.77
2018-12-25T23:06:48.722Z,33.43
2018-12-25T23:09:36.775Z,40.33
2018-12-25T23:12:43.997Z,32.63
2018-12-25T23:15:31.996Z,31.10
2018-12-25T23:18:11.228Z,39.07
2018-12-25T23:25:59.295Z,34.10
2018-12-25T23:28:47.482Z,36.53
2018-12-25T23:31:35.692Z,31.70
2018-12-25T23:34:23.713Z,34.10
2018-12-25T23:37:11.708Z,26.50
2018-12-25T23:39:42.763Z,31.57
2018-12-25T23:42:30.838Z,34.30
2018-12-25T23:45:18.868Z,26.30
2018-12-25T23:48:06.855Z,28.43
2018-12-25T23:50:54.952Z,28.87
2018-12-25T23:54:01.877Z,31.77
2018-12-25T23:56:50.733Z,31.37
2018-12-25T23:59:38.876Z,28.23
